Time;durP1;ratioP1;P1;durP2;ratioP2;P2;SDS_P1;SDS_P2;PMS_P1;PMS_P2;Temp;Humidity;BMP_temperature;BMP_pressure;BME280_temperature;BME280_humidity;BME280_pressure;Samples;Min_cycle;Max_cycle;Signal;HPM_P1;HPM_P2
2022/06/03 00:02:07;;;;;;;13.48;6.05;;;;;;;;;;5014173;28;20026;-71
2022/06/03 00:04:51;;;;;;;12.40;6.27;;;;;;;;;;5021014;28;20026;-71
2022/06/03 00:07:35;;;;;;;16.37;6.50;;;;;;;;;;5025937;28;20108;-71
2022/06/03 00:10:06;;;;;;;14.07;7.23;;;;;;;;;;5025864;28;20033;-71
2022/06/03 00:12:52;;;;;;;11.93;7.15;;;;;;;;;;5026423;28;20041;-72
2022/06/03 00:15:36;;;;;;;16.00;7.20;;;;;;;;;;5021676;28;20116;-71
2022/06/03 00:18:13;;;;;;;14.70;6.90;;;;;;;;;;5022604;28;20107;-71
2022/06/03 00:20:56;;;;;;;11.80;7.17;;;;;;;;;;5018763;28;20025;-71
2022/06/03 00:23:36;;;;;;;17.63;6.90;;;;;;;;;;5013798;28;20029;-71
2022/06/03 00:26:07;;;;;;;14.00;7.53;;;;;;;;;;5031045;28;20026;-71
2022/06/03 00:28:53;;;;;;;14.70;6.88;;;;;;;;;;5018816;28;20095;-71
2022/06/03 00:31:31;;;;;;;15.37;6.87;;;;;;;;;;5025331;28;20480;-71
2022/06/03 00:34:06;;;;;;;16.63;7.00;;;;;;;;;;5025124;28;20085;-71
2022/06/03 00:36:43;;;;;;;11.37;6.80;;;;;;;;;;5026629;28;20034;-72
2022/06/03 00:39:12;;;;;;;15.00;7.30;;;;;;;;;;5013753;28;20033;-71
2022/06/03 00:41:55;;;;;;;15.40;7.33;;;;;;;;;;5026789;28;20032;-71
2022/06/03 00:44:26;;;;;;;11.60;7.80;;;;;;;;;;5026327;28;20025;-71
2022/06/03 00:47:08;;;;;;;17.15;7.80;;;;;;;;;;5018943;28;20381;-71
2022/06/03 00:49:42;;;;;;;14.32;8.52;;;;;;;;;;5020118;28;20018;-71
2022/06/03 00:52:17;;;;;;;17.20;7.57;;;;;;;;;;5020125;28;20506;-71
2022/06/03 00:54:55;;;;;;;14.63;7.57;;;;;;;;;;5022756;28;20226;-71
2022/06/03 00:57:38;;;;;;;14.37;8.37;;;;;;;;;;5023450;28;20037;-71
2022/06/03 01:00:24;;;;;;;17.13;8.53;;;;;;;;;;5015133;28;20029;-71
2022/06/03 01:03:05;;;;;;;17.90;7.90;;;;;;;;;;5021245;28;20022;-71
2022/06/03 01:05:36;;;;;;;14.37;7.73;;;;;;;;;;5017778;28;20025;-71
2022/06/03 01:08:05;;;;;;;15.85;7.80;;;;;;;;;;5020911;28;20025;-71
2022/06/03 01:10:48;;;;;;;16.57;7.97;;;;;;;;;;5015946;28;20037;-71
2022/06/03 01:13:22;;;;;;;16.90;8.17;;;;;;;;;;5019553;28;20025;-71
2022/06/03 01:15:48;;;;;;;15.93;7.97;;;;;;;;;;5018424;28;20032;-71
2022/06/03 01:18:28;;;;;;;17.77;7.70;;;;;;;;;;5017299;28;20521;-71
2022/06/03 01:20:53;;;;;;;20.20;9.47;;;;;;;;;;5014675;28;20029;-71
2022/06/03 01:23:19;;;;;;;15.50;8.50;;;;;;;;;;5019192;28;20401;-71
2022/06/03 01:26:02;;;;;;;18.23;8.67;;;;;;;;;;5026042;28;20029;-71
2022/06/03 01:28:36;;;;;;;16.93;8.60;;;;;;;;;;5022548;28;20084;-71
2022/06/03 01:31:04;;;;;;;17.70;9.00;;;;;;;;;;5025701;28;20029;-71
2022/06/03 01:33:32;;;;;;;15.97;8.97;;;;;;;;;;5023621;28;20029;-71
2022/06/03 01:36:16;;;;;;;19.40;8.53;;;;;;;;;;5019976;28;20025;-71
2022/06/03 01:38:50;;;;;;;16.27;8.73;;;;;;;;;;5019161;28;20026;-71
2022/06/03 01:41:18;;;;;;;15.83;8.37;;;;;;;;;;5013567;28;20060;-71
2022/06/03 01:43:44;;;;;;;16.50;8.63;;;;;;;;;;5022160;28;20029;-71
2022/06/03 01:46:12;;;;;;;17.13;8.70;;;;;;;;;;5030007;28;20036;-71
2022/06/03 01:48:44;;;;;;;16.43;8.80;;;;;;;;;;5026182;28;20541;-71
2022/06/03 01:51:09;;;;;;;20.77;9.10;;;;;;;;;;5027041;28;20065;-71
2022/06/03 01:54:00;;;;;;;15.77;9.03;;;;;;;;;;5027348;28;20060;-71
2022/06/03 01:56:26;;;;;;;16.63;9.45;;;;;;;;;;5018679;28;20029;-71
2022/06/03 01:59:09;;;;;;;19.13;10.07;;;;;;;;;;5025680;28;20526;-71
2022/06/03 02:01:40;;;;;;;18.43;10.20;;;;;;;;;;5023916;28;20410;-70
2022/06/03 02:04:05;;;;;;;24.77;11.38;;;;;;;;;;5022038;28;20017;-69
2022/06/03 02:06:42;;;;;;;25.47;11.33;;;;;;;;;;5023280;28;20036;-70
2022/06/03 02:09:19;;;;;;;21.70;11.57;;;;;;;;;;5025498;28;20029;-69
2022/06/03 02:11:47;;;;;;;21.63;11.50;;;;;;;;;;5016837;28;20033;-70
2022/06/03 02:14:21;;;;;;;26.80;11.93;;;;;;;;;;5021128;28;20029;-70
2022/06/03 02:16:49;;;;;;;26.37;13.47;;;;;;;;;;5020593;28;20022;-70
2022/06/03 02:19:14;;;;;;;24.37;13.20;;;;;;;;;;5022483;28;20026;-70
2022/06/03 02:22:10;;;;;;;22.70;12.07;;;;;;;;;;5018852;28;20034;-70
2022/06/03 02:24:39;;;;;;;25.57;12.97;;;;;;;;;;5022438;28;20079;-69
2022/06/03 02:27:30;;;;;;;26.73;13.43;;;;;;;;;;5029251;28;20025;-69
2022/06/03 02:30:26;;;;;;;31.20;14.13;;;;;;;;;;5022158;28;20017;-69
2022/06/03 02:32:54;;;;;;;24.97;13.47;;;;;;;;;;5015448;28;20022;-69
2022/06/03 02:35:25;;;;;;;27.97;14.40;;;;;;;;;;5019831;28;20013;-69
2022/06/03 02:37:53;;;;;;;24.45;13.25;;;;;;;;;;5023802;28;20034;-69
2022/06/03 02:40:24;;;;;;;25.97;12.77;;;;;;;;;;5021170;28;20026;-69
2022/06/03 02:42:52;;;;;;;24.13;12.90;;;;;;;;;;5019807;28;20036;-69
2022/06/03 02:45:36;;;;;;;23.87;12.67;;;;;;;;;;5030605;28;20033;-69
2022/06/03 02:48:20;;;;;;;25.77;12.43;;;;;;;;;;5021967;28;20022;-69
2022/06/03 02:50:58;;;;;;;23.67;11.33;;;;;;;;;;5027351;28;20033;-69
2022/06/03 02:53:44;;;;;;;19.67;11.40;;;;;;;;;;5018800;28;20020;-69
2022/06/03 02:56:28;;;;;;;22.43;12.53;;;;;;;;;;5018773;28;20519;-69
2022/06/03 02:58:59;;;;;;;24.63;12.37;;;;;;;;;;5022678;28;20064;-69
2022/06/03 03:01:30;;;;;;;31.95;13.55;;;;;;;;;;5015953;28;20018;-69
2022/06/03 03:03:56;;;;;;;27.23;14.43;;;;;;;;;;5019289;28;20607;-69
2022/06/03 03:06:21;;;;;;;30.70;14.53;;;;;;;;;;5021573;28;20026;-69
2022/06/03 03:08:54;;;;;;;26.27;13.97;;;;;;;;;;5028740;28;20012;-69
2022/06/03 03:11:29;;;;;;;28.83;13.97;;;;;;;;;;5024188;28;20021;-70
2022/06/03 03:14:12;;;;;;;27.97;13.67;;;;;;;;;;5023561;28;20105;-69
2022/06/03 03:16:49;;;;;;;25.57;13.90;;;;;;;;;;5021069;28;20044;-69
2022/06/03 03:19:24;;;;;;;27.27;13.80;;;;;;;;;;5026764;28;20021;-69
2022/06/03 03:22:01;;;;;;;25.83;13.97;;;;;;;;;;5017089;28;20021;-69
2022/06/03 03:24:35;;;;;;;25.23;13.57;;;;;;;;;;5020266;28;20021;-69
2022/06/03 03:27:00;;;;;;;25.23;14.20;;;;;;;;;;5021260;28;20060;-69
2022/06/03 03:29:45;;;;;;;25.63;13.53;;;;;;;;;;5025729;28;20413;-69
2022/06/03 03:32:10;;;;;;;26.33;13.57;;;;;;;;;;5025813;28;20045;-69
2022/06/03 03:34:38;;;;;;;27.90;13.63;;;;;;;;;;5019567;28;20030;-69
2022/06/03 03:37:03;;;;;;;27.53;13.00;;;;;;;;;;5026033;28;20076;-69
2022/06/03 03:39:35;;;;;;;25.07;12.67;;;;;;;;;;5016226;28;20071;-69
2022/06/03 03:42:03;;;;;;;23.88;12.65;;;;;;;;;;5020602;28;20049;-69
2022/06/03 03:44:34;;;;;;;23.20;12.23;;;;;;;;;;5023034;28;20056;-69
2022/06/03 03:47:02;;;;;;;22.83;12.05;;;;;;;;;;5024926;28;20026;-69
2022/06/03 03:49:37;;;;;;;26.73;12.43;;;;;;;;;;5028245;28;20021;-69
2022/06/03 03:52:11;;;;;;;22.93;11.57;;;;;;;;;;5021548;28;20022;-69
2022/06/03 03:54:53;;;;;;;25.23;11.73;;;;;;;;;;5013308;28;20430;-69
2022/06/03 03:57:18;;;;;;;21.25;11.82;;;;;;;;;;5025134;28;20025;-69
2022/06/03 04:00:02;;;;;;;23.93;11.97;;;;;;;;;;5030022;28;20022;-69
2022/06/03 04:02:47;;;;;;;23.67;11.13;;;;;;;;;;5016154;28;20041;-69
2022/06/03 04:05:31;;;;;;;17.80;10.30;;;;;;;;;;5027387;28;20413;-68
2022/06/03 04:08:04;;;;;;;17.20;8.90;;;;;;;;;;5037119;28;20029;-68
2022/06/03 04:10:47;;;;;;;18.33;9.43;;;;;;;;;;5028182;28;20044;-68
2022/06/03 04:13:31;;;;;;;18.63;8.73;;;;;;;;;;5017817;28;20041;-68
2022/06/03 04:16:15;;;;;;;12.40;7.20;;;;;;;;;;5013003;28;20049;-68
2022/06/03 04:18:55;;;;;;;10.70;7.00;;;;;;;;;;5017747;28;20530;-68
2022/06/03 04:21:39;;;;;;;12.93;6.97;;;;;;;;;;5016830;28;20048;-68
2022/06/03 04:24:23;;;;;;;13.07;6.93;;;;;;;;;;5025198;28;20139;-68
2022/06/03 04:27:06;;;;;;;15.00;6.97;;;;;;;;;;5026780;28;20033;-68
2022/06/03 04:29:34;;;;;;;11.03;6.23;;;;;;;;;;5026492;28;20033;-69
2022/06/03 04:32:17;;;;;;;13.97;6.50;;;;;;;;;;5026415;28;20131;-68
2022/06/03 04:34:45;;;;;;;15.07;7.00;;;;;;;;;;5013394;28;20414;-69
2022/06/03 04:37:13;;;;;;;15.10;6.40;;;;;;;;;;5011888;28;20025;-68
2022/06/03 04:39:54;;;;;;;10.97;6.33;;;;;;;;;;5013209;28;20462;-68
2022/06/03 04:42:38;;;;;;;13.37;6.37;;;;;;;;;;5012972;28;20058;-68
2022/06/03 04:45:12;;;;;;;10.93;5.87;;;;;;;;;;5030346;28;20022;-68
2022/06/03 04:48:09;;;;;;;11.23;6.00;;;;;;;;;;5025877;28;20360;-68
2022/06/03 04:50:43;;;;;;;11.00;5.80;;;;;;;;;;5024499;28;20132;-68
2022/06/03 04:53:08;;;;;;;12.80;5.90;;;;;;;;;;5023747;28;20061;-68
2022/06/03 04:55:46;;;;;;;10.80;6.00;;;;;;;;;;5016331;28;20056;-68
2022/06/03 04:58:14;;;;;;;12.17;6.30;;;;;;;;;;5025599;28;20489;-68
2022/06/03 05:00:56;;;;;;;12.47;5.50;;;;;;;;;;5015797;28;20071;-69
2022/06/03 05:03:32;;;;;;;14.07;5.45;;;;;;;;;;5029424;28;20017;-68
2022/06/03 05:05:58;;;;;;;9.68;5.07;;;;;;;;;;5014326;28;20316;-68
2022/06/03 05:08:32;;;;;;;9.67;5.43;;;;;;;;;;5022508;28;20083;-68
2022/06/03 05:11:16;;;;;;;14.57;5.93;;;;;;;;;;5011989;28;20022;-68
2022/06/03 05:14:00;;;;;;;11.50;5.95;;;;;;;;;;5012959;28;20017;-68
2022/06/03 05:16:49;;;;;;;10.15;5.53;;;;;;;;;;5014969;28;20029;-68
2022/06/03 05:19:33;;;;;;;9.73;5.20;;;;;;;;;;5018464;28;20034;-68
2022/06/03 05:22:13;;;;;;;7.72;5.05;;;;;;;;;;5020371;28;20530;-68
2022/06/03 05:24:38;;;;;;;13.43;5.50;;;;;;;;;;5021254;28;20108;-68
2022/06/03 05:27:19;;;;;;;12.52;5.03;;;;;;;;;;5022646;28;20120;-68
2022/06/03 05:29:56;;;;;;;14.18;5.57;;;;;;;;;;5016148;28;20021;-68
2022/06/03 05:32:21;;;;;;;12.00;5.68;;;;;;;;;;5023786;28;20128;-68
2022/06/03 05:35:09;;;;;;;11.52;5.15;;;;;;;;;;5015023;28;20481;-68
2022/06/03 05:37:54;;;;;;;10.98;5.25;;;;;;;;;;5022245;28;20029;-68
2022/06/03 05:40:45;;;;;;;9.75;4.72;;;;;;;;;;5019238;28;20037;-68
2022/06/03 05:43:21;;;;;;;9.93;5.40;;;;;;;;;;5018626;28;20083;-68
2022/06/03 05:46:05;;;;;;;8.80;4.43;;;;;;;;;;5021050;28;20033;-68
2022/06/03 05:48:30;;;;;;;9.90;4.55;;;;;;;;;;5027672;28;20029;-68
2022/06/03 05:50:55;;;;;;;13.15;4.22;;;;;;;;;;5028956;28;20036;-68
2022/06/03 05:53:39;;;;;;;11.02;4.85;;;;;;;;;;5031655;28;20029;-68
2022/06/03 05:56:23;;;;;;;10.10;4.63;;;;;;;;;;5031508;28;20026;-68
2022/06/03 05:58:48;;;;;;;10.55;4.20;;;;;;;;;;5030644;28;20075;-68
2022/06/03 06:01:26;;;;;;;12.32;5.25;;;;;;;;;;5030599;28;20014;-68
2022/06/03 06:04:13;;;;;;;11.75;5.07;;;;;;;;;;5030204;28;20021;-68
2022/06/03 06:06:56;;;;;;;10.93;4.30;;;;;;;;;;5031650;28;20371;-68
2022/06/03 06:09:34;;;;;;;8.40;4.28;;;;;;;;;;5030287;28;20052;-68
2022/06/03 06:12:17;;;;;;;9.10;4.10;;;;;;;;;;5031306;28;20029;-68
2022/06/03 06:15:02;;;;;;;11.48;3.75;;;;;;;;;;5016423;28;20093;-68
2022/06/03 06:17:28;;;;;;;7.72;3.80;;;;;;;;;;5013482;28;20037;-69
2022/06/03 06:19:54;;;;;;;6.88;3.75;;;;;;;;;;5011933;28;20018;-68
2022/06/03 06:22:34;;;;;;;7.55;3.38;;;;;;;;;;5011321;28;20104;-68
2022/06/03 06:25:10;;;;;;;7.45;3.45;;;;;;;;;;5011737;28;20025;-68
2022/06/03 06:27:41;;;;;;;7.07;3.35;;;;;;;;;;5011626;28;20034;-68
2022/06/03 06:30:23;;;;;;;5.70;3.00;;;;;;;;;;5024964;28;20430;-68
2022/06/03 06:33:04;;;;;;;8.05;3.45;;;;;;;;;;5022706;28;20084;-68
2022/06/03 06:35:29;;;;;;;9.20;3.00;;;;;;;;;;5013759;28;20022;-68
2022/06/03 06:38:01;;;;;;;7.40;3.13;;;;;;;;;;5030725;28;20501;-68
2022/06/03 06:40:32;;;;;;;7.43;3.10;;;;;;;;;;5031852;28;20048;-68
2022/06/03 06:43:15;;;;;;;7.45;3.30;;;;;;;;;;5030127;28;20025;-68
2022/06/03 06:45:41;;;;;;;6.90;2.95;;;;;;;;;;5029473;28;20064;-68
2022/06/03 06:48:30;;;;;;;6.88;3.30;;;;;;;;;;5019871;28;20429;-68
2022/06/03 06:51:13;;;;;;;7.45;3.00;;;;;;;;;;5024682;28;20041;-68
2022/06/03 06:53:46;;;;;;;6.63;3.13;;;;;;;;;;5011536;28;20532;-68
2022/06/03 06:56:24;;;;;;;6.65;3.00;;;;;;;;;;5011422;28;20033;-68
2022/06/03 06:58:56;;;;;;;6.53;3.40;;;;;;;;;;5011479;28;20535;-68
2022/06/03 07:01:25;;;;;;;6.88;3.17;;;;;;;;;;5011569;28;20026;-68
2022/06/03 07:04:01;;;;;;;8.27;3.30;;;;;;;;;;5013271;28;20586;-68
2022/06/03 07:06:34;;;;;;;6.85;3.25;;;;;;;;;;5011219;28;20113;-68
2022/06/03 07:09:11;;;;;;;8.02;2.83;;;;;;;;;;5029706;28;20025;-68
2022/06/03 07:11:45;;;;;;;6.72;2.85;;;;;;;;;;5035060;28;20448;-68
2022/06/03 07:14:13;;;;;;;6.88;3.10;;;;;;;;;;5023962;28;20022;-68
2022/06/03 07:19:48;;;;;;;5.57;2.50;;;;;;;;;;5015111;28;20045;-68
2022/06/03 07:22:28;;;;;;;5.47;2.58;;;;;;;;;;5014446;28;20072;-68
2022/06/03 07:24:58;;;;;;;5.45;2.80;;;;;;;;;;5014490;28;20056;-68
2022/06/03 07:27:29;;;;;;;10.05;2.80;;;;;;;;;;5029100;28;20148;-68
2022/06/03 07:29:58;;;;;;;6.28;2.70;;;;;;;;;;5034526;28;20021;-68
2022/06/03 07:32:26;;;;;;;7.22;3.00;;;;;;;;;;5033709;28;20026;-68
2022/06/03 07:34:58;;;;;;;4.72;2.40;;;;;;;;;;5014620;28;20014;-68
2022/06/03 07:37:25;;;;;;;5.65;2.72;;;;;;;;;;5033573;28;20014;-68
2022/06/03 07:39:53;;;;;;;7.10;2.70;;;;;;;;;;5034761;28;20048;-69
2022/06/03 07:42:21;;;;;;;5.10;2.42;;;;;;;;;;5034142;28;20444;-68
2022/06/03 07:44:54;;;;;;;5.90;2.50;;;;;;;;;;5032018;28;20018;-68
2022/06/03 07:47:19;;;;;;;5.13;2.40;;;;;;;;;;5033374;28;20060;-68
2022/06/03 07:49:49;;;;;;;4.70;2.40;;;;;;;;;;5021509;28;20493;-68
2022/06/03 07:52:35;;;;;;;4.82;2.75;;;;;;;;;;5034315;28;20025;-68
2022/06/03 07:55:05;;;;;;;7.05;2.70;;;;;;;;;;5033342;28;20045;-68
2022/06/03 07:57:31;;;;;;;5.00;2.50;;;;;;;;;;5029922;28;20063;-68
2022/06/03 07:59:58;;;;;;;6.90;2.63;;;;;;;;;;5014892;28;20018;-68
2022/06/03 08:02:23;;;;;;;5.30;2.75;;;;;;;;;;5015570;28;20028;-68
2022/06/03 08:04:58;;;;;;;5.18;2.45;;;;;;;;;;5033598;28;20017;-68
2022/06/03 08:12:59;;;;;;;6.35;2.95;;;;;;;;;;5014504;28;20029;-68
2022/06/03 08:15:29;;;;;;;6.65;2.50;;;;;;;;;;5033617;28;20386;-68
2022/06/03 08:17:55;;;;;;;7.47;2.60;;;;;;;;;;5028998;28;20018;-68
2022/06/03 08:20:23;;;;;;;5.90;2.67;;;;;;;;;;5013949;28;20018;-69
2022/06/03 08:22:49;;;;;;;4.72;2.70;;;;;;;;;;5013764;28;20097;-68
2022/06/03 08:25:17;;;;;;;5.20;2.10;;;;;;;;;;5013725;28;20510;-68
2022/06/03 08:27:43;;;;;;;5.32;2.88;;;;;;;;;;5013247;28;20021;-68
2022/06/03 08:30:11;;;;;;;5.57;2.80;;;;;;;;;;5014201;28;20025;-68
2022/06/03 08:32:36;;;;;;;4.72;2.40;;;;;;;;;;5014460;28;20040;-69
2022/06/03 08:35:06;;;;;;;4.25;2.42;;;;;;;;;;5033125;28;20049;-68
2022/06/03 08:37:46;;;;;;;4.40;2.33;;;;;;;;;;5032732;28;20029;-68
2022/06/03 08:40:17;;;;;;;4.88;2.47;;;;;;;;;;5033906;28;20392;-68
2022/06/03 08:42:47;;;;;;;4.05;2.30;;;;;;;;;;5034109;28;20401;-68
2022/06/03 08:45:34;;;;;;;5.55;2.47;;;;;;;;;;5033200;28;20060;-68
2022/06/03 08:48:03;;;;;;;5.43;2.40;;;;;;;;;;5026080;28;20036;-68
2022/06/03 08:50:38;;;;;;;7.45;2.60;;;;;;;;;;5025972;28;20430;-68
2022/06/03 08:53:06;;;;;;;6.80;2.88;;;;;;;;;;5033171;28;20083;-68
2022/06/03 08:55:34;;;;;;;6.70;3.03;;;;;;;;;;5033406;28;20025;-68
2022/06/03 08:58:03;;;;;;;5.10;2.50;;;;;;;;;;5027225;28;20076;-68
2022/06/03 09:00:34;;;;;;;5.28;2.97;;;;;;;;;;5013423;28;20025;-68
2022/06/03 09:03:06;;;;;;;4.83;2.73;;;;;;;;;;5015862;28;20026;-68
2022/06/03 09:05:37;;;;;;;7.47;2.85;;;;;;;;;;5028312;28;20359;-68
2022/06/03 09:08:16;;;;;;;11.93;3.20;;;;;;;;;;5032329;28;20509;-68
2022/06/03 09:10:47;;;;;;;7.10;2.88;;;;;;;;;;5025370;28;20107;-68
2022/06/03 09:13:12;;;;;;;;;;;;;;;;;;5030185;28;20469;-68
2022/06/03 09:15:41;;;;;;;6.45;3.22;;;;;;;;;;5020438;28;19931;-69
2022/06/03 09:18:17;;;;;;;4.45;2.80;;;;;;;;;;5031721;28;20017;-69
2022/06/03 09:21:05;;;;;;;5.55;2.80;;;;;;;;;;5029952;28;20040;-68
2022/06/03 09:23:37;;;;;;;4.85;2.78;;;;;;;;;;5031360;28;20037;-68
2022/06/03 09:26:03;;;;;;;9.40;2.75;;;;;;;;;;5032579;28;20017;-68
2022/06/03 09:28:33;;;;;;;7.40;2.63;;;;;;;;;;5030216;28;20394;-68
2022/06/03 09:31:00;;;;;;;4.32;2.65;;;;;;;;;;5031976;28;20104;-68
2022/06/03 09:33:27;;;;;;;4.32;2.40;;;;;;;;;;5030344;28;20680;-69
2022/06/03 09:35:53;;;;;;;4.65;2.78;;;;;;;;;;5014951;28;20036;-68
2022/06/03 09:38:21;;;;;;;5.03;2.67;;;;;;;;;;5012839;28;20026;-68
2022/06/03 09:40:47;;;;;;;4.32;2.60;;;;;;;;;;5012661;28;20029;-68
2022/06/03 09:43:15;;;;;;;6.03;2.33;;;;;;;;;;5012681;28;20068;-68
2022/06/03 09:45:45;;;;;;;5.28;2.17;;;;;;;;;;5015919;28;20393;-68
2022/06/03 09:48:11;;;;;;;4.32;2.40;;;;;;;;;;5032494;28;20033;-68
2022/06/03 09:50:36;;;;;;;4.20;2.42;;;;;;;;;;5027748;28;20036;-69
2022/06/03 09:53:04;;;;;;;5.78;2.40;;;;;;;;;;5032298;28;20029;-68
2022/06/03 09:55:32;;;;;;;5.65;2.25;;;;;;;;;;5027930;28;20060;-67
2022/06/03 09:57:59;;;;;;;4.03;2.25;;;;;;;;;;5031222;28;20013;-67
2022/06/03 10:00:26;;;;;;;3.55;2.13;;;;;;;;;;5032166;28;20032;-67
2022/06/03 10:02:52;;;;;;;5.15;2.28;;;;;;;;;;5031661;28;20021;-67
2022/06/03 10:05:19;;;;;;;4.13;2.20;;;;;;;;;;5030657;28;20040;-67
2022/06/03 10:07:45;;;;;;;6.50;2.35;;;;;;;;;;5030743;28;20076;-67
2022/06/03 10:13:00;;;;;;;3.67;1.70;;;;;;;;;;5030769;28;20031;-69
2022/06/03 10:15:43;;;;;;;6.57;1.90;;;;;;;;;;5026516;28;20028;-69
2022/06/03 10:18:11;;;;;;;4.80;1.88;;;;;;;;;;5026434;28;20287;-69
2022/06/03 10:20:36;;;;;;;3.33;1.60;;;;;;;;;;5020457;28;20028;-71
2022/06/03 10:23:08;;;;;;;4.03;1.63;;;;;;;;;;5022860;28;20020;-70
2022/06/03 10:25:35;;;;;;;3.40;1.40;;;;;;;;;;5033224;28;20026;-69
2022/06/03 10:28:08;;;;;;;3.58;1.48;;;;;;;;;;5027035;28;20028;-70
2022/06/03 10:30:36;;;;;;;3.78;2.05;;;;;;;;;;5036684;28;20071;-70
2022/06/03 10:33:03;;;;;;;4.63;1.73;;;;;;;;;;5027120;28;20112;-70
2022/06/03 10:35:34;;;;;;;2.60;1.30;;;;;;;;;;5028537;28;20017;-69
2022/06/03 10:38:00;;;;;;;3.80;1.75;;;;;;;;;;5022227;28;20029;-70
2022/06/03 10:40:26;;;;;;;4.15;1.63;;;;;;;;;;5024998;28;20028;-67
2022/06/03 10:42:57;;;;;;;3.88;2.00;;;;;;;;;;5020593;28;20473;-67
2022/06/03 10:45:26;;;;;;;3.58;1.50;;;;;;;;;;5024055;28;20029;-68
2022/06/03 10:47:52;;;;;;;4.13;1.35;;;;;;;;;;5024901;28;20114;-68
2022/06/03 10:50:23;;;;;;;3.85;1.52;;;;;;;;;;5023378;28;20360;-68
2022/06/03 11:01:13;;;;;;;5.43;1.90;;;;;;;;;;5030883;28;20457;-68
2022/06/03 11:03:41;;;;;;;3.10;1.70;;;;;;;;;;5033754;28;20101;-68
2022/06/03 11:06:11;;;;;;;6.30;1.85;;;;;;;;;;5015406;28;20034;-68
2022/06/03 11:08:46;;;;;;;2.75;1.58;;;;;;;;;;5015331;28;20034;-68
2022/06/03 11:11:11;;;;;;;3.60;1.60;;;;;;;;;;5034270;28;20034;-68
2022/06/03 11:13:39;;;;;;;3.00;1.70;;;;;;;;;;5029167;28;20029;-68
2022/06/03 11:16:13;;;;;;;3.10;1.73;;;;;;;;;;5015438;28;20497;-68
2022/06/03 11:18:38;;;;;;;3.22;1.85;;;;;;;;;;5027764;28;20021;-68
2022/06/03 11:21:23;;;;;;;5.03;1.67;;;;;;;;;;5016557;28;20026;-68
2022/06/03 11:23:49;;;;;;;4.63;1.60;;;;;;;;;;5014761;28;20335;-68
2022/06/03 11:26:15;;;;;;;8.48;1.90;;;;;;;;;;5014496;28;20022;-68
2022/06/03 11:28:47;;;;;;;5.07;1.75;;;;;;;;;;5014041;28;20022;-68
2022/06/03 11:31:15;;;;;;;2.90;1.52;;;;;;;;;;5015002;28;20034;-68
2022/06/03 11:33:53;;;;;;;3.13;1.50;;;;;;;;;;5016383;28;20482;-68
2022/06/03 11:36:26;;;;;;;2.80;1.67;;;;;;;;;;5028410;28;20390;-68
2022/06/03 11:38:51;;;;;;;2.90;1.50;;;;;;;;;;5034013;28;20037;-68
2022/06/03 11:41:21;;;;;;;5.50;1.90;;;;;;;;;;5033933;28;20045;-69
2022/06/03 11:43:51;;;;;;;3.17;1.73;;;;;;;;;;5032214;28;20490;-69
2022/06/03 11:46:22;;;;;;;3.30;1.45;;;;;;;;;;5014532;28;20386;-69
2022/06/03 11:48:50;;;;;;;3.38;1.90;;;;;;;;;;5015176;28;20028;-69
2022/06/03 11:51:15;;;;;;;4.78;1.40;;;;;;;;;;5032974;28;20048;-68
2022/06/03 11:53:44;;;;;;;2.92;1.70;;;;;;;;;;5032418;28;20037;-68
2022/06/03 11:56:11;;;;;;;4.72;1.63;;;;;;;;;;5030562;28;20105;-69
2022/06/03 11:58:39;;;;;;;3.83;1.90;;;;;;;;;;5033641;28;20053;-68
2022/06/03 12:01:07;;;;;;;3.55;1.63;;;;;;;;;;5033700;28;20018;-68
2022/06/03 12:03:46;;;;;;;3.83;1.40;;;;;;;;;;5033716;28;20401;-69
2022/06/03 12:06:22;;;;;;;3.67;1.42;;;;;;;;;;5032491;28;20090;-69
2022/06/03 12:08:59;;;;;;;2.65;1.40;;;;;;;;;;5033527;28;20379;-69
2022/06/03 12:14:37;;;;;;;3.63;1.35;;;;;;;;;;5032359;28;20394;-69
2022/06/03 12:17:05;;;;;;;4.68;1.52;;;;;;;;;;5033006;28;20079;-69
2022/06/03 12:19:44;;;;;;;5.55;1.70;;;;;;;;;;5028341;28;20018;-69
2022/06/03 12:22:18;;;;;;;4.97;1.52;;;;;;;;;;5013048;28;20041;-69
2022/06/03 12:24:53;;;;;;;2.60;1.20;;;;;;;;;;5011841;28;20088;-70
2022/06/03 12:27:29;;;;;;;4.28;1.30;;;;;;;;;;5013194;28;20461;-69
2022/06/03 12:30:06;;;;;;;7.43;1.23;;;;;;;;;;5013308;28;20101;-70
2022/06/03 12:32:33;;;;;;;2.35;1.13;;;;;;;;;;5015404;28;20014;-70
2022/06/03 12:35:17;;;;;;;3.35;1.58;;;;;;;;;;5014449;28;20045;-70
2022/06/03 12:37:43;;;;;;;2.45;1.05;;;;;;;;;;5030367;28;20013;-70
2022/06/03 12:40:22;;;;;;;4.20;1.40;;;;;;;;;;5032634;28;20492;-70
2022/06/03 12:42:47;;;;;;;4.35;1.40;;;;;;;;;;5032566;28;20351;-70
2022/06/03 12:45:25;;;;;;;3.88;1.20;;;;;;;;;;5029390;28;20137;-70
2022/06/03 12:47:51;;;;;;;5.82;1.73;;;;;;;;;;5031998;28;20045;-70
2022/06/03 12:50:27;;;;;;;2.75;1.40;;;;;;;;;;5025020;28;20109;-70
2022/06/03 12:52:59;;;;;;;3.22;1.50;;;;;;;;;;5013005;28;20101;-71
2022/06/03 12:55:26;;;;;;;4.55;1.50;;;;;;;;;;5013108;28;20026;-71
2022/06/03 12:58:16;;;;;;;3.08;1.30;;;;;;;;;;5014323;28;20022;-70
2022/06/03 13:00:53;;;;;;;3.22;1.30;;;;;;;;;;5014309;28;20355;-70
2022/06/03 13:03:24;;;;;;;5.35;1.23;;;;;;;;;;5014410;28;20915;-70
2022/06/03 13:05:49;;;;;;;;;;;;;;;;;;5012749;28;20026;-70
2022/06/03 13:08:26;;;;;;;5.57;1.40;;;;;;;;;;5020680;28;19913;-70
2022/06/03 13:10:51;;;;;;;3.05;1.23;;;;;;;;;;5029076;28;20033;-70
2022/06/03 13:13:20;;;;;;;4.32;1.25;;;;;;;;;;5028770;28;20379;-70
2022/06/03 13:15:47;;;;;;;2.30;1.35;;;;;;;;;;5012723;28;20030;-70
2022/06/03 13:18:18;;;;;;;3.53;1.50;;;;;;;;;;5012480;28;20010;-71
2022/06/03 13:20:43;;;;;;;;;;;;;;;;;;5024590;28;20132;-70
2022/06/03 13:23:23;;;;;;;2.95;1.17;;;;;;;;;;5031022;28;19905;-70
2022/06/03 13:25:50;;;;;;;3.90;1.50;;;;;;;;;;5031866;28;20021;-70
2022/06/03 13:28:18;;;;;;;2.25;1.30;;;;;;;;;;5031880;28;20025;-71
2022/06/03 13:30:43;;;;;;;3.10;1.40;;;;;;;;;;5032084;28;20104;-71
2022/06/03 13:33:15;;;;;;;3.15;1.45;;;;;;;;;;5025712;28;20121;-71
2022/06/03 13:35:58;;;;;;;4.50;1.20;;;;;;;;;;5011947;28;20025;-70
2022/06/03 13:38:27;;;;;;;2.75;1.30;;;;;;;;;;5012380;28;20029;-71
2022/06/03 13:44:10;;;;;;;3.40;1.48;;;;;;;;;;5025255;28;20156;-71
2022/06/03 13:46:36;;;;;;;5.00;1.40;;;;;;;;;;5031771;28;20021;-71
2022/06/03 13:49:05;;;;;;;2.30;1.20;;;;;;;;;;5017712;28;20394;-71
2022/06/03 13:51:44;;;;;;;3.00;1.10;;;;;;;;;;5031644;28;20017;-71
2022/06/03 13:54:21;;;;;;;4.03;1.10;;;;;;;;;;5018011;28;20044;-71
2022/06/03 13:56:55;;;;;;;2.75;1.05;;;;;;;;;;5012134;28;20056;-71
2022/06/03 13:59:21;;;;;;;1.90;1.10;;;;;;;;;;5010682;28;20022;-72
2022/06/03 14:01:49;;;;;;;2.10;1.10;;;;;;;;;;5011894;28;20022;-71
2022/06/03 14:04:18;;;;;;;5.47;1.20;;;;;;;;;;5013234;28;20140;-71
2022/06/03 14:06:51;;;;;;;4.47;1.10;;;;;;;;;;5011803;28;20058;-71
2022/06/03 14:09:16;;;;;;;2.55;1.00;;;;;;;;;;5011766;28;20041;-71
2022/06/03 14:11:45;;;;;;;2.90;1.02;;;;;;;;;;5010542;28;20014;-71
2022/06/03 14:14:13;;;;;;;5.40;0.95;;;;;;;;;;5021710;28;20845;-71
2022/06/03 14:16:38;;;;;;;2.13;1.05;;;;;;;;;;5031612;28;20025;-71
2022/06/03 14:19:07;;;;;;;2.75;1.52;;;;;;;;;;5026145;28;20373;-71
2022/06/03 14:21:38;;;;;;;4.03;1.30;;;;;;;;;;5018024;28;20058;-72
2022/06/03 14:24:10;;;;;;;4.13;1.17;;;;;;;;;;5020914;28;20025;-71
2022/06/03 14:26:47;;;;;;;1.70;1.10;;;;;;;;;;5018654;28;20442;-71
2022/06/03 14:29:16;;;;;;;2.67;1.20;;;;;;;;;;5018605;28;20020;-71
2022/06/03 14:31:49;;;;;;;2.65;1.10;;;;;;;;;;5018346;28;20026;-71
2022/06/03 14:34:20;;;;;;;2.00;1.10;;;;;;;;;;5019166;28;20017;-71
2022/06/03 14:36:46;;;;;;;3.17;1.10;;;;;;;;;;5026498;28;20036;-70
2022/06/03 14:39:13;;;;;;;3.47;1.20;;;;;;;;;;5035322;28;20025;-70
2022/06/03 14:41:40;;;;;;;1.95;1.05;;;;;;;;;;5018987;28;20009;-70
2022/06/03 14:44:09;;;;;;;2.63;1.00;;;;;;;;;;5029879;28;20025;-70
2022/06/03 14:46:39;;;;;;;2.15;1.00;;;;;;;;;;5035625;28;20021;-71
2022/06/03 14:49:07;;;;;;;1.80;1.00;;;;;;;;;;5027643;28;20452;-71
2022/06/03 14:51:37;;;;;;;2.28;0.93;;;;;;;;;;5037493;28;20033;-71
2022/06/03 14:54:09;;;;;;;2.40;1.10;;;;;;;;;;5037398;28;20021;-71
2022/06/03 14:56:39;;;;;;;2.83;1.00;;;;;;;;;;5035869;28;20037;-71
2022/06/03 14:59:10;;;;;;;2.38;1.02;;;;;;;;;;5037802;28;20018;-72
2022/06/03 15:01:41;;;;;;;1.60;0.80;;;;;;;;;;5037419;28;20053;-71
2022/06/03 15:04:24;;;;;;;4.25;1.00;;;;;;;;;;5029369;28;20026;-71
2022/06/03 15:06:54;;;;;;;3.65;1.27;;;;;;;;;;5017990;28;20029;-71
2022/06/03 15:09:23;;;;;;;4.15;1.30;;;;;;;;;;5017486;28;20030;-70
2022/06/03 15:11:53;;;;;;;1.85;1.00;;;;;;;;;;5017930;28;20042;-70
2022/06/03 15:14:21;;;;;;;4.22;1.20;;;;;;;;;;5025351;28;20065;-70
2022/06/03 15:16:51;;;;;;;10.57;1.45;;;;;;;;;;5037536;28;20036;-70
2022/06/03 15:19:32;;;;;;;3.87;1.03;;;;;;;;;;5028602;28;20025;-70
2022/06/03 15:21:57;;;;;;;3.55;1.00;;;;;;;;;;5017382;28;20264;-70
2022/06/03 15:24:23;;;;;;;2.58;1.10;;;;;;;;;;5017131;28;20026;-71
2022/06/03 15:26:48;;;;;;;5.07;1.20;;;;;;;;;;5037826;28;20433;-71
2022/06/03 15:29:19;;;;;;;3.42;1.20;;;;;;;;;;5035349;28;20097;-71
2022/06/03 15:31:46;;;;;;;2.88;1.10;;;;;;;;;;5034461;28;20103;-71
2022/06/03 15:34:12;;;;;;;2.28;1.08;;;;;;;;;;5026975;28;20026;-70
2022/06/03 15:36:38;;;;;;;4.82;1.20;;;;;;;;;;5014257;28;20037;-71